sensor_id;sensor_type;location;lat;lon;timestamp;pressure;altitude;pressure_sealevel;temperature;humidity
41636;BME280;27623;51.966;4.602;2022-10-17T00:00:54;64858.34;;;14.85;100.00
41636;BME280;27623;51.966;4.602;2022-10-17T00:03:19;64862.81;;;14.75;100.00
41636;BME280;27623;51.966;4.602;2022-10-17T00:05:46;64827.03;;;14.85;100.00
41636;BME280;27623;51.966;4.602;2022-10-17T00:08:14;64857.25;;;14.84;100.00
41636;BME280;27623;51.966;4.602;2022-10-17T00:10:40;64790.44;;;14.67;100.00
41636;BME280;27623;51.966;4.602;2022-10-17T00:13:06;64796.47;;;14.73;100.00
41636;BME280;27623;51.966;4.602;2022-10-17T00:15:31;64806.63;;;14.56;100.00
41636;BME280;27623;51.966;4.602;2022-10-17T00:17:57;64821.97;;;14.70;100.00
41636;BME280;27623;51.966;4.602;2022-10-17T00:20:23;64820.28;;;14.76;100.00
41636;BME280;27623;51.966;4.602;2022-10-17T00:22:49;64816.84;;;14.63;100.00
41636;BME280;27623;51.966;4.602;2022-10-17T00:25:15;64818.69;;;14.60;100.00
41636;BME280;27623;51.966;4.602;2022-10-17T00:27:41;64812.06;;;14.68;100.00
41636;BME280;27623;51.966;4.602;2022-10-17T00:30:10;64842.13;;;14.65;100.00
41636;BME280;27623;51.966;4.602;2022-10-17T00:32:35;64834.81;;;14.56;100.00
41636;BME280;27623;51.966;4.602;2022-10-17T00:35:01;64830.75;;;14.71;100.00
41636;BME280;27623;51.966;4.602;2022-10-17T00:37:27;64836.06;;;14.67;100.00
41636;BME280;27623;51.966;4.602;2022-10-17T00:39:53;64833.88;;;14.65;100.00
41636;BME280;27623;51.966;4.602;2022-10-17T00:42:19;64829.06;;;14.77;100.00
41636;BME280;27623;51.966;4.602;2022-10-17T00:47:15;64843.22;;;14.66;100.00
41636;BME280;27623;51.966;4.602;2022-10-17T00:49:41;64806.66;;;14.49;100.00
41636;BME280;27623;51.966;4.602;2022-10-17T00:52:23;64801.19;;;14.44;100.00
41636;BME280;27623;51.966;4.602;2022-10-17T00:55:23;64849.28;;;14.58;100.00
41636;BME280;27623;51.966;4.602;2022-10-17T00:57:50;64818.34;;;14.55;100.00
41636;BME280;27623;51.966;4.602;2022-10-17T01:00:17;64796.53;;;14.59;100.00
41636;BME280;27623;51.966;4.602;2022-10-17T01:02:43;64818.88;;;14.63;100.00
41636;BME280;27623;51.966;4.602;2022-10-17T01:05:09;64830.16;;;14.78;100.00
41636;BME280;27623;51.966;4.602;2022-10-17T01:07:35;64870.47;;;14.82;100.00
41636;BME280;27623;51.966;4.602;2022-10-17T01:10:02;64844.47;;;14.77;100.00
41636;BME280;27623;51.966;4.602;2022-10-17T01:12:47;64839.50;;;14.79;100.00
41636;BME280;27623;51.966;4.602;2022-10-17T01:18:07;64834.28;;;14.56;100.00
41636;BME280;27623;51.966;4.602;2022-10-17T01:32:15;64797.50;;;14.50;100.00
41636;BME280;27623;51.966;4.602;2022-10-17T01:34:46;64816.56;;;14.44;100.00
41636;BME280;27623;51.966;4.602;2022-10-17T01:37:33;64815.81;;;14.48;100.00
41636;BME280;27623;51.966;4.602;2022-10-17T01:40:11;64803.75;;;14.44;100.00
41636;BME280;27623;51.966;4.602;2022-10-17T01:42:55;64773.91;;;14.35;100.00
41636;BME280;27623;51.966;4.602;2022-10-17T01:45:42;64791.28;;;14.42;100.00
41636;BME280;27623;51.966;4.602;2022-10-17T01:48:18;64832.13;;;14.47;100.00
41636;BME280;27623;51.966;4.602;2022-10-17T01:51:06;64808.84;;;14.51;100.00
41636;BME280;27623;51.966;4.602;2022-10-17T01:53:57;64812.88;;;14.50;100.00
41636;BME280;27623;51.966;4.602;2022-10-17T01:56:23;64826.22;;;14.58;100.00
41636;BME280;27623;51.966;4.602;2022-10-17T01:58:55;64826.44;;;14.53;100.00
41636;BME280;27623;51.966;4.602;2022-10-17T02:01:23;64798.97;;;14.49;100.00
41636;BME280;27623;51.966;4.602;2022-10-17T02:03:51;64803.75;;;14.44;100.00
41636;BME280;27623;51.966;4.602;2022-10-17T02:06:17;64807.94;;;14.53;100.00
41636;BME280;27623;51.966;4.602;2022-10-17T02:08:52;64826.06;;;14.48;100.00
41636;BME280;27623;51.966;4.602;2022-10-17T02:11:22;64788.34;;;14.44;100.00
41636;BME280;27623;51.966;4.602;2022-10-17T02:24:22;64812.28;;;14.57;100.00
41636;BME280;27623;51.966;4.602;2022-10-17T02:27:11;64810.81;;;14.58;100.00
41636;BME280;27623;51.966;4.602;2022-10-17T02:32:15;64822.34;;;14.68;100.00
41636;BME280;27623;51.966;4.602;2022-10-17T02:34:47;64831.69;;;14.63;100.00
41636;BME280;27623;51.966;4.602;2022-10-17T02:37:17;64849.66;;;14.63;100.00
41636;BME280;27623;51.966;4.602;2022-10-17T02:39:44;64856.59;;;14.67;100.00
41636;BME280;27623;51.966;4.602;2022-10-17T02:42:12;64819.06;;;14.58;100.00
41636;BME280;27623;51.966;4.602;2022-10-17T02:44:42;64842.31;;;14.61;100.00
41636;BME280;27623;51.966;4.602;2022-10-17T02:47:15;64820.88;;;14.62;100.00
41636;BME280;27623;51.966;4.602;2022-10-17T02:49:46;64843.94;;;14.69;100.00
41636;BME280;27623;51.966;4.602;2022-10-17T02:52:18;64857.72;;;14.61;100.00
41636;BME280;27623;51.966;4.602;2022-10-17T02:54:53;64841.59;;;14.58;100.00
41636;BME280;27623;51.966;4.602;2022-10-17T02:59:54;64878.94;;;14.71;100.00
41636;BME280;27623;51.966;4.602;2022-10-17T03:02:23;64824.47;;;14.77;100.00
41636;BME280;27623;51.966;4.602;2022-10-17T03:04:49;64881.81;;;14.83;100.00
41636;BME280;27623;51.966;4.602;2022-10-17T03:07:14;64859.44;;;14.86;100.00
41636;BME280;27623;51.966;4.602;2022-10-17T03:09:40;64857.06;;;14.89;100.00
41636;BME280;27623;51.966;4.602;2022-10-17T03:12:05;64893.34;;;14.94;100.00
41636;BME280;27623;51.966;4.602;2022-10-17T03:14:30;64864.94;;;14.91;100.00
41636;BME280;27623;51.966;4.602;2022-10-17T03:16:58;64872.63;;;14.91;100.00
41636;BME280;27623;51.966;4.602;2022-10-17T03:19:23;64853.75;;;14.93;100.00
41636;BME280;27623;51.966;4.602;2022-10-17T03:21:49;64894.59;;;14.97;100.00
41636;BME280;27623;51.966;4.602;2022-10-17T03:24:20;64878.44;;;15.01;100.00
41636;BME280;27623;51.966;4.602;2022-10-17T03:26:46;64918.94;;;15.08;100.00
41636;BME280;27623;51.966;4.602;2022-10-17T03:29:12;64895.28;;;15.07;100.00
41636;BME280;27623;51.966;4.602;2022-10-17T03:31:38;64852.00;;;15.12;100.00
41636;BME280;27623;51.966;4.602;2022-10-17T03:34:03;64890.50;;;15.12;100.00
41636;BME280;27623;51.966;4.602;2022-10-17T03:36:29;64915.81;;;15.15;100.00
41636;BME280;27623;51.966;4.602;2022-10-17T03:38:55;64883.47;;;15.23;100.00
41636;BME280;27623;51.966;4.602;2022-10-17T03:41:21;64913.03;;;15.19;100.00
41636;BME280;27623;51.966;4.602;2022-10-17T03:43:46;64922.97;;;15.14;100.00
41636;BME280;27623;51.966;4.602;2022-10-17T03:46:12;64921.28;;;15.20;100.00
41636;BME280;27623;51.966;4.602;2022-10-17T03:48:37;64920.38;;;15.14;100.00
41636;BME280;27623;51.966;4.602;2022-10-17T03:51:05;64898.72;;;15.20;100.00
41636;BME280;27623;51.966;4.602;2022-10-17T03:53:30;64904.22;;;15.18;100.00
41636;BME280;27623;51.966;4.602;2022-10-17T03:56:07;64942.72;;;15.18;100.00
41636;BME280;27623;51.966;4.602;2022-10-17T03:58:33;64895.28;;;15.15;100.00
41636;BME280;27623;51.966;4.602;2022-10-17T04:01:03;64934.09;;;15.20;100.00
41636;BME280;27623;51.966;4.602;2022-10-17T04:03:29;64909.34;;;15.18;100.00
41636;BME280;27623;51.966;4.602;2022-10-17T04:05:57;64884.41;;;15.21;100.00
41636;BME280;27623;51.966;4.602;2022-10-17T04:08:23;64896.16;;;15.20;100.00
41636;BME280;27623;51.966;4.602;2022-10-17T04:10:48;64950.41;;;15.25;100.00
41636;BME280;27623;51.966;4.602;2022-10-17T04:13:14;64947.47;;;15.27;100.00
41636;BME280;27623;51.966;4.602;2022-10-17T04:15:39;64923.25;;;15.26;100.00
41636;BME280;27623;51.966;4.602;2022-10-17T04:18:04;64927.84;;;15.26;100.00
41636;BME280;27623;51.966;4.602;2022-10-17T04:20:30;64913.53;;;15.34;100.00
41636;BME280;27623;51.966;4.602;2022-10-17T04:22:56;64909.88;;;15.26;100.00
41636;BME280;27623;51.966;4.602;2022-10-17T04:25:21;64894.81;;;15.31;100.00
41636;BME280;27623;51.966;4.602;2022-10-17T04:27:46;64948.75;;;15.31;100.00
41636;BME280;27623;51.966;4.602;2022-10-17T04:30:15;64927.47;;;15.35;100.00
41636;BME280;27623;51.966;4.602;2022-10-17T04:32:41;64941.41;;;15.36;100.00
41636;BME280;27623;51.966;4.602;2022-10-17T04:35:07;64911.28;;;15.39;100.00
41636;BME280;27623;51.966;4.602;2022-10-17T04:37:33;64962.25;;;15.48;100.00
41636;BME280;27623;51.966;4.602;2022-10-17T04:39:58;64958.22;;;15.56;100.00
41636;BME280;27623;51.966;4.602;2022-10-17T04:42:24;64948.28;;;15.54;100.00
41636;BME280;27623;51.966;4.602;2022-10-17T04:44:49;64971.41;;;15.54;100.00
41636;BME280;27623;51.966;4.602;2022-10-17T04:47:14;64971.22;;;15.59;100.00
41636;BME280;27623;51.966;4.602;2022-10-17T04:49:40;64981.31;;;15.56;100.00
41636;BME280;27623;51.966;4.602;2022-10-17T04:52:06;64948.63;;;15.59;100.00
41636;BME280;27623;51.966;4.602;2022-10-17T04:54:32;64962.19;;;15.62;100.00
41636;BME280;27623;51.966;4.602;2022-10-17T04:56:58;64974.88;;;15.60;100.00
41636;BME280;27623;51.966;4.602;2022-10-17T04:59:24;64956.28;;;15.73;100.00
41636;BME280;27623;51.966;4.602;2022-10-17T05:01:50;64985.84;;;15.70;100.00
41636;BME280;27623;51.966;4.602;2022-10-17T05:04:15;65013.31;;;15.81;100.00
41636;BME280;27623;51.966;4.602;2022-10-17T05:06:41;64978.66;;;15.77;100.00
41636;BME280;27623;51.966;4.602;2022-10-17T05:09:07;65023.22;;;15.83;100.00
41636;BME280;27623;51.966;4.602;2022-10-17T05:11:32;64983.22;;;15.84;100.00
41636;BME280;27623;51.966;4.602;2022-10-17T05:13:59;64981.72;;;15.85;100.00
41636;BME280;27623;51.966;4.602;2022-10-17T05:16:28;64992.38;;;15.83;100.00
41636;BME280;27623;51.966;4.602;2022-10-17T05:18:56;64984.84;;;15.86;100.00
41636;BME280;27623;51.966;4.602;2022-10-17T05:21:27;64989.81;;;15.83;100.00
41636;BME280;27623;51.966;4.602;2022-10-17T05:23:53;65016.81;;;15.79;100.00
41636;BME280;27623;51.966;4.602;2022-10-17T05:26:20;64978.81;;;15.80;100.00
41636;BME280;27623;51.966;4.602;2022-10-17T05:28:45;65005.84;;;15.76;100.00
41636;BME280;27623;51.966;4.602;2022-10-17T05:31:13;65022.34;;;15.77;100.00
41636;BME280;27623;51.966;4.602;2022-10-17T05:33:39;64995.94;;;15.74;100.00
41636;BME280;27623;51.966;4.602;2022-10-17T05:36:05;64975.00;;;15.76;100.00
41636;BME280;27623;51.966;4.602;2022-10-17T05:38:31;64969.13;;;15.73;100.00
41636;BME280;27623;51.966;4.602;2022-10-17T05:40:58;64989.31;;;15.75;100.00
41636;BME280;27623;51.966;4.602;2022-10-17T05:43:24;65011.16;;;15.79;100.00
41636;BME280;27623;51.966;4.602;2022-10-17T05:45:49;65008.91;;;15.84;100.00
41636;BME280;27623;51.966;4.602;2022-10-17T05:48:15;64999.94;;;15.80;100.00
41636;BME280;27623;51.966;4.602;2022-10-17T05:50:40;64996.44;;;15.82;100.00
41636;BME280;27623;51.966;4.602;2022-10-17T05:53:06;64974.22;;;15.80;100.00
41636;BME280;27623;51.966;4.602;2022-10-17T05:55:31;65019.56;;;15.82;100.00
41636;BME280;27623;51.966;4.602;2022-10-17T05:57:58;64990.78;;;15.74;100.00
41636;BME280;27623;51.966;4.602;2022-10-17T06:00:24;64982.53;;;15.74;100.00
41636;BME280;27623;51.966;4.602;2022-10-17T06:02:49;64967.28;;;15.76;100.00
41636;BME280;27623;51.966;4.602;2022-10-17T06:05:15;64997.91;;;15.81;100.00
41636;BME280;27623;51.966;4.602;2022-10-17T06:07:41;65041.22;;;15.83;100.00
41636;BME280;27623;51.966;4.602;2022-10-17T06:10:07;64994.97;;;15.83;100.00
41636;BME280;27623;51.966;4.602;2022-10-17T06:12:33;64989.28;;;15.82;100.00
41636;BME280;27623;51.966;4.602;2022-10-17T06:14:58;65005.41;;;15.86;100.00
41636;BME280;27623;51.966;4.602;2022-10-17T06:17:24;65020.84;;;15.86;100.00
41636;BME280;27623;51.966;4.602;2022-10-17T06:19:49;64996.97;;;15.82;100.00
41636;BME280;27623;51.966;4.602;2022-10-17T06:22:15;64994.41;;;15.82;100.00
41636;BME280;27623;51.966;4.602;2022-10-17T06:24:40;65035.53;;;15.82;100.00
41636;BME280;27623;51.966;4.602;2022-10-17T06:27:06;65043.78;;;15.83;100.00
41636;BME280;27623;51.966;4.602;2022-10-17T06:29:32;64999.00;;;15.82;100.00
41636;BME280;27623;51.966;4.602;2022-10-17T06:31:57;65006.84;;;15.99;100.00
41636;BME280;27623;51.966;4.602;2022-10-17T06:34:22;64993.63;;;15.94;100.00
41636;BME280;27623;51.966;4.602;2022-10-17T06:36:48;65006.13;;;15.96;100.00
41636;BME280;27623;51.966;4.602;2022-10-17T06:39:13;65028.88;;;15.98;100.00
41636;BME280;27623;51.966;4.602;2022-10-17T06:41:39;65043.38;;;15.99;100.00
41636;BME280;27623;51.966;4.602;2022-10-17T06:44:05;65030.13;;;16.01;100.00
41636;BME280;27623;51.966;4.602;2022-10-17T06:46:35;65016.03;;;15.98;100.00
41636;BME280;27623;51.966;4.602;2022-10-17T06:49:01;65002.63;;;15.97;100.00
41636;BME280;27623;51.966;4.602;2022-10-17T06:51:29;65043.56;;;15.95;100.00
41636;BME280;27623;51.966;4.602;2022-10-17T06:53:56;65013.22;;;16.02;100.00
41636;BME280;27623;51.966;4.602;2022-10-17T06:56:22;65036.16;;;16.07;100.00
41636;BME280;27623;51.966;4.602;2022-10-17T06:58:47;65047.19;;;16.03;100.00
41636;BME280;27623;51.966;4.602;2022-10-17T07:01:15;65031.22;;;16.02;100.00
41636;BME280;27623;51.966;4.602;2022-10-17T07:03:41;65024.41;;;16.08;100.00
41636;BME280;27623;51.966;4.602;2022-10-17T07:06:08;65030.09;;;16.08;100.00
41636;BME280;27623;51.966;4.602;2022-10-17T07:08:35;65032.09;;;16.15;100.00
41636;BME280;27623;51.966;4.602;2022-10-17T07:11:09;65049.56;;;16.14;100.00
41636;BME280;27623;51.966;4.602;2022-10-17T07:13:34;65044.97;;;16.15;100.00
41636;BME280;27623;51.966;4.602;2022-10-17T07:16:00;65072.50;;;16.12;100.00
41636;BME280;27623;51.966;4.602;2022-10-17T07:18:25;65033.41;;;16.11;100.00
41636;BME280;27623;51.966;4.602;2022-10-17T07:20:52;65036.91;;;16.10;100.00
41636;BME280;27623;51.966;4.602;2022-10-17T07:23:19;65080.03;;;16.17;100.00
41636;BME280;27623;51.966;4.602;2022-10-17T07:25:46;65049.00;;;16.14;100.00
41636;BME280;27623;51.966;4.602;2022-10-17T07:28:13;65051.91;;;16.19;100.00
41636;BME280;27623;51.966;4.602;2022-10-17T07:30:38;65057.94;;;16.25;100.00
41636;BME280;27623;51.966;4.602;2022-10-17T07:33:06;65063.97;;;16.30;100.00
41636;BME280;27623;51.966;4.602;2022-10-17T07:35:32;65029.81;;;16.27;100.00
41636;BME280;27623;51.966;4.602;2022-10-17T07:37:57;65054.78;;;16.31;100.00
41636;BME280;27623;51.966;4.602;2022-10-17T07:40:22;65079.78;;;16.28;100.00
41636;BME280;27623;51.966;4.602;2022-10-17T07:42:48;65047.06;;;16.31;100.00
41636;BME280;27623;51.966;4.602;2022-10-17T07:45:13;65055.53;;;16.27;100.00
41636;BME280;27623;51.966;4.602;2022-10-17T07:47:40;65071.84;;;16.40;100.00
41636;BME280;27623;51.966;4.602;2022-10-17T07:50:06;65081.78;;;16.35;100.00
41636;BME280;27623;51.966;4.602;2022-10-17T07:52:32;65086.34;;;16.41;100.00
41636;BME280;27623;51.966;4.602;2022-10-17T07:54:57;65114.78;;;16.51;100.00
41636;BME280;27623;51.966;4.602;2022-10-17T07:57:23;65082.69;;;16.40;100.00
41636;BME280;27623;51.966;4.602;2022-10-17T07:59:49;65051.66;;;16.38;100.00
41636;BME280;27623;51.966;4.602;2022-10-17T08:02:25;65098.69;;;16.34;100.00
41636;BME280;27623;51.966;4.602;2022-10-17T08:04:52;65079.41;;;16.30;100.00
41636;BME280;27623;51.966;4.602;2022-10-17T08:07:18;65058.13;;;16.27;100.00
41636;BME280;27623;51.966;4.602;2022-10-17T08:09:44;65060.66;;;16.34;100.00
41636;BME280;27623;51.966;4.602;2022-10-17T08:12:09;65051.13;;;16.30;100.00
41636;BME280;27623;51.966;4.602;2022-10-17T08:14:35;65107.88;;;16.33;100.00
41636;BME280;27623;51.966;4.602;2022-10-17T08:17:00;65062.50;;;16.31;100.00
41636;BME280;27623;51.966;4.602;2022-10-17T08:19:26;65083.44;;;16.36;100.00
41636;BME280;27623;51.966;4.602;2022-10-17T08:21:51;65108.63;;;16.36;100.00
41636;BME280;27623;51.966;4.602;2022-10-17T08:24:18;65083.81;;;16.34;100.00
41636;BME280;27623;51.966;4.602;2022-10-17T08:26:44;65076.47;;;16.32;100.00
41636;BME280;27623;51.966;4.602;2022-10-17T08:29:14;65087.84;;;16.33;100.00
41636;BME280;27623;51.966;4.602;2022-10-17T08:31:39;65079.75;;;16.35;100.00
41636;BME280;27623;51.966;4.602;2022-10-17T08:34:05;65099.06;;;16.32;100.00
41636;BME280;27623;51.966;4.602;2022-10-17T08:36:30;65101.09;;;16.31;100.00
41636;BME280;27623;51.966;4.602;2022-10-17T08:38:56;65098.50;;;16.38;100.00
41636;BME280;27623;51.966;4.602;2022-10-17T08:43:59;65088.78;;;16.32;100.00
41636;BME280;27623;51.966;4.602;2022-10-17T08:46:33;65123.88;;;16.33;100.00
41636;BME280;27623;51.966;4.602;2022-10-17T08:49:01;65102.16;;;16.39;100.00
41636;BME280;27623;51.966;4.602;2022-10-17T08:51:31;65081.06;;;16.32;100.00
41636;BME280;27623;51.966;4.602;2022-10-17T08:54:11;65119.66;;;16.32;100.00
41636;BME280;27623;51.966;4.602;2022-10-17T08:56:43;65093.94;;;16.32;100.00
41636;BME280;27623;51.966;4.602;2022-10-17T08:59:13;65119.66;;;16.32;100.00
41636;BME280;27623;51.966;4.602;2022-10-17T09:01:53;65074.06;;;16.35;100.00
41636;BME280;27623;51.966;4.602;2022-10-17T09:04:37;65089.84;;;16.40;100.00
41636;BME280;27623;51.966;4.602;2022-10-17T09:10:20;65086.88;;;16.42;100.00
41636;BME280;27623;51.966;4.602;2022-10-17T09:18:28;65113.00;;;16.40;100.00
41636;BME280;27623;51.966;4.602;2022-10-17T09:21:35;65117.06;;;16.39;100.00
41636;BME280;27623;51.966;4.602;2022-10-17T09:24:08;65093.53;;;16.41;100.00
41636;BME280;27623;51.966;4.602;2022-10-17T09:26:38;65124.72;;;16.46;100.00
41636;BME280;27623;51.966;4.602;2022-10-17T09:29:14;65113.13;;;16.49;100.00
41636;BME280;27623;51.966;4.602;2022-10-17T09:32:07;65160.56;;;16.50;100.00
41636;BME280;27623;51.966;4.602;2022-10-17T09:34:37;65155.06;;;16.45;100.00
41636;BME280;27623;51.966;4.602;2022-10-17T09:37:08;65132.81;;;16.44;100.00
41636;BME280;27623;51.966;4.602;2022-10-17T09:39:37;65129.16;;;16.43;100.00
41636;BME280;27623;51.966;4.602;2022-10-17T09:42:03;65122.53;;;16.44;100.00
41636;BME280;27623;51.966;4.602;2022-10-17T09:44:33;65123.63;;;16.45;100.00
41636;BME280;27623;51.966;4.602;2022-10-17T09:49:41;65101.19;;;16.48;100.00
41636;BME280;27623;51.966;4.602;2022-10-17T09:52:14;65157.63;;;16.45;100.00
41636;BME280;27623;51.966;4.602;2022-10-17T09:54:51;65101.03;;;16.45;100.00
41636;BME280;27623;51.966;4.602;2022-10-17T09:57:19;65110.38;;;16.47;100.00
41636;BME280;27623;51.966;4.602;2022-10-17T09:59:46;65107.28;;;16.46;100.00
41636;BME280;27623;51.966;4.602;2022-10-17T10:04:59;65148.78;;;16.52;100.00
41636;BME280;27623;51.966;4.602;2022-10-17T10:07:28;65118.09;;;16.47;100.00
41636;BME280;27623;51.966;4.602;2022-10-17T10:09:54;65116.25;;;16.50;100.00
41636;BME280;27623;51.966;4.602;2022-10-17T10:12:31;65142.91;;;16.48;100.00
41636;BME280;27623;51.966;4.602;2022-10-17T10:14:57;65135.56;;;16.46;100.00
41636;BME280;27623;51.966;4.602;2022-10-17T10:17:32;65102.31;;;16.49;100.00
41636;BME280;27623;51.966;4.602;2022-10-17T10:19:59;65085.22;;;16.47;100.00
41636;BME280;27623;51.966;4.602;2022-10-17T10:22:25;65126.94;;;16.48;100.00
41636;BME280;27623;51.966;4.602;2022-10-17T10:25:16;65098.06;;;16.47;100.00
41636;BME280;27623;51.966;4.602;2022-10-17T10:27:45;65092.38;;;16.47;100.00
41636;BME280;27623;51.966;4.602;2022-10-17T10:30:17;65117.56;;;16.46;100.00
41636;BME280;27623;51.966;4.602;2022-10-17T10:32:45;65077.53;;;16.40;100.00
41636;BME280;27623;51.966;4.602;2022-10-17T10:35:23;65136.09;;;16.54;100.00
41636;BME280;27623;51.966;4.602;2022-10-17T10:37:55;65123.81;;;16.47;100.00
41636;BME280;27623;51.966;4.602;2022-10-17T10:40:26;65152.25;;;16.57;100.00
41636;BME280;27623;51.966;4.602;2022-10-17T10:42:56;65156.13;;;16.54;100.00
41636;BME280;27623;51.966;4.602;2022-10-17T10:45:25;65124.72;;;16.53;100.00
41636;BME280;27623;51.966;4.602;2022-10-17T10:47:59;65144.19;;;16.52;100.00
41636;BME280;27623;51.966;4.602;2022-10-17T10:50:30;65103.22;;;16.47;100.00
41636;BME280;27623;51.966;4.602;2022-10-17T10:53:30;65096.66;;;16.41;100.00
41636;BME280;27623;51.966;4.602;2022-10-17T10:56:18;65110.03;;;16.42;100.00
41636;BME280;27623;51.966;4.602;2022-10-17T11:06:24;65120.50;;;16.44;100.00
41636;BME280;27623;51.966;4.602;2022-10-17T11:09:04;65115.00;;;16.46;100.00
41636;BME280;27623;51.966;4.602;2022-10-17T11:11:37;65109.84;;;16.46;100.00
41636;BME280;27623;51.966;4.602;2022-10-17T11:19:32;65110.38;;;16.47;100.00
41636;BME280;27623;51.966;4.602;2022-10-17T11:22:01;65116.44;;;16.53;100.00
41636;BME280;27623;51.966;4.602;2022-10-17T11:24:53;65113.50;;;16.47;100.00
41636;BME280;27623;51.966;4.602;2022-10-17T11:27:28;65130.78;;;16.44;100.00
41636;BME280;27623;51.966;4.602;2022-10-17T11:29:54;65119.22;;;16.48;100.00
41636;BME280;27623;51.966;4.602;2022-10-17T11:32:27;65099.72;;;16.49;100.00
41636;BME280;27623;51.966;4.602;2022-10-17T11:35:06;65091.09;;;16.50;100.00
41636;BME280;27623;51.966;4.602;2022-10-17T11:37:39;65140.16;;;16.53;100.00
41636;BME280;27623;51.966;4.602;2022-10-17T11:40:30;65095.66;;;16.57;100.00
41636;BME280;27623;51.966;4.602;2022-10-17T11:42:59;65139.41;;;16.57;100.00
41636;BME280;27623;51.966;4.602;2022-10-17T11:45:32;65102.09;;;16.54;100.00
41636;BME280;27623;51.966;4.602;2022-10-17T11:48:06;65116.81;;;16.50;100.00
41636;BME280;27623;51.966;4.602;2022-10-17T11:50:39;65114.97;;;16.54;100.00
41636;BME280;27623;51.966;4.602;2022-10-17T11:53:19;65133.13;;;16.63;100.00
41636;BME280;27623;51.966;4.602;2022-10-17T11:55:46;65137.91;;;16.65;100.00
41636;BME280;27623;51.966;4.602;2022-10-17T12:01:06;65126.31;;;16.69;100.00
41636;BME280;27623;51.966;4.602;2022-10-17T12:03:57;65126.47;;;16.71;100.00
41636;BME280;27623;51.966;4.602;2022-10-17T12:07:06;65168.75;;;16.79;100.00
41636;BME280;27623;51.966;4.602;2022-10-17T12:10:12;65142.19;;;16.91;100.00
41636;BME280;27623;51.966;4.602;2022-10-17T12:12:39;65200.09;;;17.01;100.00
41636;BME280;27623;51.966;4.602;2022-10-17T12:17:37;65200.22;;;17.11;100.00
41636;BME280;27623;51.966;4.602;2022-10-17T12:22:46;65187.72;;;17.09;100.00
41636;BME280;27623;51.966;4.602;2022-10-17T12:25:18;65208.31;;;17.16;100.00
41636;BME280;27623;51.966;4.602;2022-10-17T12:27:46;65183.28;;;17.12;100.00
41636;BME280;27623;51.966;4.602;2022-10-17T12:30:19;65175.19;;;17.14;100.00
41636;BME280;27623;51.966;4.602;2022-10-17T12:35:27;65183.50;;;17.07;100.00
41636;BME280;27623;51.966;4.602;2022-10-17T12:46:00;65146.53;;;17.09;100.00
41636;BME280;27623;51.966;4.602;2022-10-17T12:51:11;65191.03;;;17.12;100.00
41636;BME280;27623;51.966;4.602;2022-10-17T12:56:14;65196.59;;;17.03;100.00
41636;BME280;27623;51.966;4.602;2022-10-17T12:58:50;65162.56;;;17.02;100.00
41636;BME280;27623;51.966;4.602;2022-10-17T13:01:28;65158.69;;;17.06;100.00
41636;BME280;27623;51.966;4.602;2022-10-17T13:03:55;65182.44;;;16.99;100.00
41636;BME280;27623;51.966;4.602;2022-10-17T13:06:27;65177.47;;;17.02;100.00
41636;BME280;27623;51.966;4.602;2022-10-17T13:08:59;65166.41;;;17.06;100.00
41636;BME280;27623;51.966;4.602;2022-10-17T13:11:29;65207.94;;;17.11;100.00
41636;BME280;27623;51.966;4.602;2022-10-17T13:13:57;65168.06;;;17.07;100.00
41636;BME280;27623;51.966;4.602;2022-10-17T13:16:38;65193.63;;;17.05;100.00
41636;BME280;27623;51.966;4.602;2022-10-17T13:19:21;65193.97;;;17.10;100.00
41636;BME280;27623;51.966;4.602;2022-10-17T13:21:55;65164.00;;;17.08;100.00
41636;BME280;27623;51.966;4.602;2022-10-17T13:24:37;65182.16;;;17.18;100.00
41636;BME280;27623;51.966;4.602;2022-10-17T13:27:50;65177.03;;;17.11;100.00
41636;BME280;27623;51.966;4.602;2022-10-17T13:29:50;65211.25;;;17.14;100.00
41636;BME280;27623;51.966;4.602;2022-10-17T13:32:16;65171.88;;;17.18;100.00
41636;BME280;27623;51.966;4.602;2022-10-17T13:34:42;65219.84;;;17.27;100.00
41636;BME280;27623;51.966;4.602;2022-10-17T13:37:11;65193.19;;;17.21;100.00
41636;BME280;27623;51.966;4.602;2022-10-17T13:39:42;65196.50;;;17.24;100.00
41636;BME280;27623;51.966;4.602;2022-10-17T13:42:38;65198.84;;;17.29;100.00
41636;BME280;27623;51.966;4.602;2022-10-17T13:45:15;65229.38;;;17.38;100.00
41636;BME280;27623;51.966;4.602;2022-10-17T13:47:42;65222.22;;;17.31;100.00
41636;BME280;27623;51.966;4.602;2022-10-17T13:50:18;65206.75;;;17.31;100.00
41636;BME280;27623;51.966;4.602;2022-10-17T13:52:44;65203.84;;;17.26;100.00
41636;BME280;27623;51.966;4.602;2022-10-17T13:55:15;65214.09;;;17.33;100.00
41636;BME280;27623;51.966;4.602;2022-10-17T13:57:40;65219.97;;;17.36;100.00
41636;BME280;27623;51.966;4.602;2022-10-17T14:00:19;65237.28;;;17.40;100.00
41636;BME280;27623;51.966;4.602;2022-10-17T14:02:46;65201.19;;;17.40;100.00
41636;BME280;27623;51.966;4.602;2022-10-17T14:05:13;65232.28;;;17.43;100.00
41636;BME280;27623;51.966;4.602;2022-10-17T14:10:19;65253.88;;;17.72;100.00
41636;BME280;27623;51.966;4.602;2022-10-17T14:12:45;65272.19;;;17.92;100.00
41636;BME280;27623;51.966;4.602;2022-10-17T14:15:13;65310.44;;;18.08;100.00
41636;BME280;27623;51.966;4.602;2022-10-17T14:17:40;65359.84;;;18.37;100.00
41636;BME280;27623;51.966;4.602;2022-10-17T14:20:07;65308.16;;;18.20;100.00
41636;BME280;27623;51.966;4.602;2022-10-17T14:22:40;65288.34;;;18.02;100.00
41636;BME280;27623;51.966;4.602;2022-10-17T14:25:44;65285.25;;;17.94;100.00
41636;BME280;27623;51.966;4.602;2022-10-17T14:30:38;65310.19;;;17.81;100.00
41636;BME280;27623;51.966;4.602;2022-10-17T14:33:11;65243.38;;;17.70;100.00
41636;BME280;27623;51.966;4.602;2022-10-17T14:35:38;65245.41;;;17.69;100.00